Time;durP1;ratioP1;P1;durP2;ratioP2;P2;SDS_P1;SDS_P2;PMS_P1;PMS_P2;Temp;Humidity;BMP_temperature;BMP_pressure;BME280_temperature;BME280_humidity;BME280_pressure;Samples;Min_cycle;Max_cycle;Signal;HPM_P1;HPM_P2
2022/09/12 00:01:48;;;;;;;4.63;2.50;;;;;;;;;;4987178;28;20134;-72
2022/09/12 00:04:14;;;;;;;7.93;3.00;;;;;;;;;;4968035;28;20054;-69
2022/09/12 00:06:42;;;;;;;6.10;3.22;;;;;;;;;;4963249;28;20055;-70
2022/09/12 00:09:09;;;;;;;6.13;2.90;;;;;;;;;;4968560;28;20102;-72
2022/09/12 00:11:36;;;;;;;8.95;3.20;;;;;;;;;;4986218;28;20127;-72
2022/09/12 00:14:03;;;;;;;9.10;2.65;;;;;;;;;;4987659;28;20054;-64
2022/09/12 00:16:31;;;;;;;5.05;2.90;;;;;;;;;;4982275;28;20042;-65
2022/09/12 00:18:59;;;;;;;6.13;3.08;;;;;;;;;;4988004;28;20058;-67
2022/09/12 00:21:26;;;;;;;4.75;2.53;;;;;;;;;;4982140;28;20111;-70
2022/09/12 00:23:52;;;;;;;4.78;2.70;;;;;;;;;;4988054;28;20058;-63
2022/09/12 00:26:20;;;;;;;4.70;2.65;;;;;;;;;;4986187;28;20050;-66
2022/09/12 00:28:47;;;;;;;7.53;2.60;;;;;;;;;;5002241;28;20141;-62
2022/09/12 00:31:16;;;;;;;4.90;2.63;;;;;;;;;;4987247;28;20057;-64
2022/09/12 00:33:43;;;;;;;5.43;2.90;;;;;;;;;;4981789;28;20086;-63
2022/09/12 00:36:14;;;;;;;5.57;2.72;;;;;;;;;;4987654;28;20054;-67
2022/09/12 00:38:41;;;;;;;6.97;3.03;;;;;;;;;;4966614;28;20059;-61
2022/09/12 00:41:08;;;;;;;4.85;2.75;;;;;;;;;;4967670;28;20078;-65
2022/09/12 00:43:36;;;;;;;6.60;3.42;;;;;;;;;;4977006;28;20058;-64
2022/09/12 00:46:06;;;;;;;6.43;3.22;;;;;;;;;;4987711;28;20054;-65
2022/09/12 00:48:35;;;;;;;5.10;2.85;;;;;;;;;;4970188;28;20059;-59
2022/09/12 00:51:02;;;;;;;6.47;3.17;;;;;;;;;;4981424;28;20050;-58
2022/09/12 00:53:30;;;;;;;8.25;3.33;;;;;;;;;;4992751;28;20089;-65
2022/09/12 00:55:58;;;;;;;5.75;2.95;;;;;;;;;;5005764;28;20049;-65
2022/09/12 00:58:26;;;;;;;6.20;3.03;;;;;;;;;;4995207;28;20054;-57
2022/09/12 01:00:53;;;;;;;5.43;2.83;;;;;;;;;;4986810;28;20128;-62
2022/09/12 01:03:20;;;;;;;5.70;2.70;;;;;;;;;;4982115;28;20101;-66
2022/09/12 01:05:52;;;;;;;5.75;3.00;;;;;;;;;;4987476;28;20050;-68
2022/09/12 01:08:19;;;;;;;19.13;4.05;;;;;;;;;;4998889;28;20056;-71
2022/09/12 01:10:47;;;;;;;11.27;5.72;;;;;;;;;;5006244;28;20053;-68
2022/09/12 01:13:14;;;;;;;9.50;3.80;;;;;;;;;;5001559;28;20054;-70
2022/09/12 01:15:43;;;;;;;5.90;3.10;;;;;;;;;;5006226;28;20053;-67
2022/09/12 01:18:13;;;;;;;5.82;3.15;;;;;;;;;;5006387;28;20049;-67
2022/09/12 01:20:50;;;;;;;5.47;3.15;;;;;;;;;;5000419;28;20049;-65
2022/09/12 01:23:32;;;;;;;8.50;3.40;;;;;;;;;;5005450;28;20060;-67
2022/09/12 01:26:07;;;;;;;6.35;3.13;;;;;;;;;;5004375;28;20077;-67
2022/09/12 01:28:49;;;;;;;8.73;3.33;;;;;;;;;;5006656;28;20081;-69
2022/09/12 01:31:19;;;;;;;9.30;3.38;;;;;;;;;;5004607;28;20066;-70
2022/09/12 01:33:56;;;;;;;7.03;3.50;;;;;;;;;;5006813;28;20073;-67
2022/09/12 01:36:31;;;;;;;7.30;3.35;;;;;;;;;;5002251;28;20046;-67
2022/09/12 01:39:00;;;;;;;5.85;2.92;;;;;;;;;;5006207;28;20085;-67
2022/09/12 01:41:28;;;;;;;7.13;3.53;;;;;;;;;;4999831;28;20058;-64
2022/09/12 01:44:00;;;;;;;8.75;3.58;;;;;;;;;;5006746;28;20050;-68
2022/09/12 01:46:32;;;;;;;7.38;3.50;;;;;;;;;;4983875;28;20082;-68
2022/09/12 01:49:01;;;;;;;6.75;3.33;;;;;;;;;;4986844;28;20155;-68
2022/09/12 01:51:32;;;;;;;8.13;3.50;;;;;;;;;;4981555;28;20054;-66
2022/09/12 01:54:02;;;;;;;7.53;3.50;;;;;;;;;;4992509;28;20046;-66
2022/09/12 01:56:32;;;;;;;7.05;3.38;;;;;;;;;;4988014;28;20058;-69
2022/09/12 01:59:01;;;;;;;5.80;3.10;;;;;;;;;;5003163;28;20105;-65
2022/09/12 02:01:30;;;;;;;6.63;3.28;;;;;;;;;;4990451;28;20050;-59
2022/09/12 02:04:00;;;;;;;7.05;3.50;;;;;;;;;;5005936;28;20108;-63
2022/09/12 02:06:29;;;;;;;6.57;3.28;;;;;;;;;;5016166;28;20054;-67
2022/09/12 02:08:58;;;;;;;7.20;3.65;;;;;;;;;;5009337;28;20057;-67
2022/09/12 02:11:24;;;;;;;6.60;3.42;;;;;;;;;;5003131;28;20099;-61
2022/09/12 02:13:54;;;;;;;6.25;3.58;;;;;;;;;;5009754;28;20179;-67
2022/09/12 02:16:22;;;;;;;8.82;3.38;;;;;;;;;;5002695;28;20050;-60
2022/09/12 02:18:52;;;;;;;6.68;3.30;;;;;;;;;;5026036;28;20058;-63
2022/09/12 02:21:19;;;;;;;7.15;3.55;;;;;;;;;;5000141;28;20058;-66
2022/09/12 02:23:47;;;;;;;8.98;3.70;;;;;;;;;;4990488;28;20120;-64
2022/09/12 02:26:18;;;;;;;7.70;3.55;;;;;;;;;;4985982;28;20101;-64
2022/09/12 02:28:45;;;;;;;7.10;4.00;;;;;;;;;;5009130;28;20060;-65
2022/09/12 02:31:15;;;;;;;9.15;3.83;;;;;;;;;;5005865;28;20065;-61
2022/09/12 02:33:45;;;;;;;6.05;3.60;;;;;;;;;;5008181;28;20061;-67
2022/09/12 02:36:20;;;;;;;7.97;3.90;;;;;;;;;;5009907;28;20058;-65
2022/09/12 02:38:48;;;;;;;8.15;3.70;;;;;;;;;;4985667;28;20054;-63
2022/09/12 02:41:17;;;;;;;8.30;3.70;;;;;;;;;;4990659;28;20139;-66
2022/09/12 02:43:44;;;;;;;7.78;3.53;;;;;;;;;;5000685;28;20058;-66
2022/09/12 02:46:13;;;;;;;8.45;4.07;;;;;;;;;;4989469;28;20078;-65
2022/09/12 02:48:41;;;;;;;10.30;4.30;;;;;;;;;;4998404;28;20068;-67
2022/09/12 02:51:07;;;;;;;;;;;;;;;;;;5009385;28;20119;-63
2022/09/12 02:53:36;;;;;;;7.75;3.72;;;;;;;;;;5002515;28;19978;-69
2022/09/12 02:56:03;;;;;;;7.28;4.07;;;;;;;;;;4991350;28;20050;-61
2022/09/12 02:58:31;;;;;;;7.40;3.95;;;;;;;;;;4984172;28;20054;-62
2022/09/12 03:01:13;;;;;;;8.38;4.25;;;;;;;;;;4969360;28;20070;-64
2022/09/12 03:03:47;;;;;;;7.78;4.45;;;;;;;;;;4964265;28;20078;-61
2022/09/12 03:06:18;;;;;;;8.00;4.20;;;;;;;;;;4982712;28;20050;-60
2022/09/12 03:08:54;;;;;;;8.50;4.32;;;;;;;;;;4992473;28;20056;-60
2022/09/12 03:11:26;;;;;;;8.57;4.43;;;;;;;;;;5024886;28;20064;-61
2022/09/12 03:13:58;;;;;;;8.13;4.10;;;;;;;;;;5019101;28;20132;-61
2022/09/12 03:16:28;;;;;;;9.60;4.20;;;;;;;;;;5008991;28;20057;-62
2022/09/12 03:19:00;;;;;;;8.90;4.65;;;;;;;;;;4995065;28;20050;-68
2022/09/12 03:21:29;;;;;;;7.20;3.85;;;;;;;;;;5005094;28;20074;-68
2022/09/12 03:23:55;;;;;;;;;;;;;;;;;;5000442;28;20042;-68
2022/09/12 03:26:27;;;;;;;9.32;4.75;;;;;;;;;;4968583;28;19926;-64
2022/09/12 03:28:54;;;;;;;9.10;4.53;;;;;;;;;;5003221;28;20042;-65
2022/09/12 03:31:20;;;;;;;9.10;4.20;;;;;;;;;;5007900;28;20046;-60
2022/09/12 03:33:47;;;;;;;9.00;4.15;;;;;;;;;;5002872;28;20078;-59
2022/09/12 03:36:15;;;;;;;8.63;4.80;;;;;;;;;;5008058;28;20076;-63
2022/09/12 03:38:42;;;;;;;8.75;4.20;;;;;;;;;;5008687;28;20107;-61
2022/09/12 03:41:08;;;;;;;10.82;4.97;;;;;;;;;;4984539;28;20046;-64
2022/09/12 03:43:36;;;;;;;9.13;4.40;;;;;;;;;;5005006;28;20048;-63
2022/09/12 03:46:03;;;;;;;9.35;4.47;;;;;;;;;;4983224;28;20062;-62
2022/09/12 03:48:30;;;;;;;9.90;4.78;;;;;;;;;;4988709;28;20058;-67
2022/09/12 03:50:59;;;;;;;9.02;4.88;;;;;;;;;;4996048;28;20062;-60
2022/09/12 03:53:26;;;;;;;9.15;4.70;;;;;;;;;;5007740;28;20057;-58
2022/09/12 03:55:54;;;;;;;11.68;4.80;;;;;;;;;;4991121;28;20053;-67
2022/09/12 03:58:20;;;;;;;10.98;5.28;;;;;;;;;;4988443;28;20066;-63
2022/09/12 04:00:48;;;;;;;8.93;4.45;;;;;;;;;;4992173;28;20100;-64
2022/09/12 04:03:15;;;;;;;9.40;4.57;;;;;;;;;;5007583;28;20057;-67
2022/09/12 04:05:41;;;;;;;11.05;5.28;;;;;;;;;;4995908;28;20066;-67
2022/09/12 04:08:07;;;;;;;10.98;5.32;;;;;;;;;;4988266;28;20054;-63
2022/09/12 04:10:34;;;;;;;9.73;4.72;;;;;;;;;;4985915;28;20046;-68
2022/09/12 04:13:01;;;;;;;10.10;4.95;;;;;;;;;;5007530;28;20086;-66
2022/09/12 04:15:27;;;;;;;11.85;5.25;;;;;;;;;;5000688;28;20116;-64
2022/09/12 04:17:55;;;;;;;11.02;5.57;;;;;;;;;;4987853;28;20054;-67
2022/09/12 04:20:22;;;;;;;10.05;4.80;;;;;;;;;;4987623;28;20058;-67
2022/09/12 04:22:48;;;;;;;10.73;5.18;;;;;;;;;;4983365;28;20054;-64
2022/09/12 04:25:16;;;;;;;10.30;5.20;;;;;;;;;;4987680;28;20057;-63
2022/09/12 04:27:42;;;;;;;9.73;5.10;;;;;;;;;;4975048;28;20046;-62
2022/09/12 04:30:09;;;;;;;12.23;5.70;;;;;;;;;;4966717;28;20050;-59
2022/09/12 04:32:36;;;;;;;13.13;5.40;;;;;;;;;;4963265;28;20146;-61
2022/09/12 04:35:05;;;;;;;9.98;5.10;;;;;;;;;;4967951;28;20122;-60
2022/09/12 04:37:31;;;;;;;12.40;5.43;;;;;;;;;;4973935;28;20050;-66
2022/09/12 04:39:58;;;;;;;10.73;5.60;;;;;;;;;;4987109;28;20062;-63
2022/09/12 04:42:24;;;;;;;13.23;6.28;;;;;;;;;;4978532;28;20065;-58
2022/09/12 04:44:51;;;;;;;12.07;5.75;;;;;;;;;;4987264;28;20057;-64
2022/09/12 04:47:17;;;;;;;11.48;5.78;;;;;;;;;;4981831;28;20062;-63
2022/09/12 04:49:44;;;;;;;12.27;5.65;;;;;;;;;;4986496;28;20061;-64
2022/09/12 04:52:12;;;;;;;11.10;5.10;;;;;;;;;;4981637;28;20050;-58
2022/09/12 04:54:39;;;;;;;13.80;6.07;;;;;;;;;;4987010;28;20054;-58
2022/09/12 04:57:05;;;;;;;15.65;6.32;;;;;;;;;;4977850;28;20150;-62
2022/09/12 04:59:32;;;;;;;11.77;6.03;;;;;;;;;;4984523;28;20132;-66
2022/09/12 05:01:58;;;;;;;14.27;6.45;;;;;;;;;;4993777;28;20050;-67
2022/09/12 05:04:25;;;;;;;13.65;6.05;;;;;;;;;;4980383;28;20092;-66
2022/09/12 05:06:51;;;;;;;13.30;6.57;;;;;;;;;;5003173;28;20149;-65
2022/09/12 05:09:20;;;;;;;16.45;6.00;;;;;;;;;;4997045;28;20054;-63
2022/09/12 05:11:46;;;;;;;14.02;6.43;;;;;;;;;;5002423;28;20058;-62
2022/09/12 05:14:13;;;;;;;12.45;6.10;;;;;;;;;;4998381;28;20065;-63
2022/09/12 05:16:40;;;;;;;12.20;6.38;;;;;;;;;;4991544;28;20054;-63
2022/09/12 05:19:06;;;;;;;29.92;12.85;;;;;;;;;;4979127;28;20070;-66
2022/09/12 05:21:33;;;;;;;14.88;7.32;;;;;;;;;;4993587;28;20055;-62
2022/09/12 05:23:59;;;;;;;17.85;7.78;;;;;;;;;;4990140;28;20065;-66
2022/09/12 05:26:27;;;;;;;13.63;6.65;;;;;;;;;;5001680;28;20068;-64
2022/09/12 05:28:55;;;;;;;15.85;6.43;;;;;;;;;;4995655;28;20069;-66
2022/09/12 05:31:22;;;;;;;13.75;6.45;;;;;;;;;;5016341;28;20065;-61
2022/09/12 05:33:50;;;;;;;12.35;6.15;;;;;;;;;;4996406;28;20050;-61
2022/09/12 05:36:19;;;;;;;13.15;6.53;;;;;;;;;;5002158;28;20061;-65
2022/09/12 05:38:46;;;;;;;17.67;7.40;;;;;;;;;;4999865;28;20061;-64
2022/09/12 05:41:13;;;;;;;16.08;6.70;;;;;;;;;;5007493;28;20109;-59
2022/09/12 05:43:42;;;;;;;15.63;6.63;;;;;;;;;;5006661;28;20053;-66
2022/09/12 05:46:11;;;;;;;14.93;6.80;;;;;;;;;;5004799;28;20054;-62
2022/09/12 05:48:39;;;;;;;18.30;7.50;;;;;;;;;;4990590;28;20137;-60
2022/09/12 05:51:07;;;;;;;14.10;6.13;;;;;;;;;;4985219;28;20077;-64
2022/09/12 05:53:34;;;;;;;;;;;;;;;;;;4993127;28;20057;-64
2022/09/12 05:56:07;;;;;;;13.23;6.03;;;;;;;;;;4988610;28;19925;-67
2022/09/12 05:58:34;;;;;;;15.13;6.45;;;;;;;;;;5009160;28;20046;-61
2022/09/12 06:01:07;;;;;;;16.92;7.25;;;;;;;;;;5003545;28;20053;-58
2022/09/12 06:03:34;;;;;;;16.45;7.47;;;;;;;;;;5008721;28;20132;-59
2022/09/12 06:06:05;;;;;;;14.32;6.70;;;;;;;;;;5003495;28;20129;-62
2022/09/12 06:08:32;;;;;;;16.70;7.03;;;;;;;;;;5010004;28;20042;-65
2022/09/12 06:10:59;;;;;;;18.08;8.30;;;;;;;;;;5009776;28;20043;-65
2022/09/12 06:13:26;;;;;;;28.90;11.93;;;;;;;;;;4989784;28;20048;-62
2022/09/12 06:16:02;;;;;;;34.38;12.20;;;;;;;;;;4991760;28;20207;-63
2022/09/12 06:18:30;;;;;;;17.95;8.88;;;;;;;;;;5009759;28;20188;-60
2022/09/12 06:20:57;;;;;;;35.55;13.95;;;;;;;;;;5002299;28;20049;-60
2022/09/12 06:23:25;;;;;;;16.73;7.78;;;;;;;;;;5009561;28;20122;-60
2022/09/12 06:25:52;;;;;;;15.77;6.97;;;;;;;;;;4999181;28;20049;-62
2022/09/12 06:28:18;;;;;;;19.33;7.93;;;;;;;;;;4989183;28;20093;-63
2022/09/12 06:30:45;;;;;;;15.05;6.85;;;;;;;;;;4985596;28;20116;-64
2022/09/12 06:33:11;;;;;;;26.55;10.98;;;;;;;;;;5008323;28;20082;-62
2022/09/12 06:35:42;;;;;;;37.55;14.93;;;;;;;;;;5008649;28;20074;-61
2022/09/12 06:38:08;;;;;;;17.63;7.93;;;;;;;;;;5003165;28;20054;-65
2022/09/12 06:40:35;;;;;;;15.63;7.32;;;;;;;;;;5005480;28;20062;-62
2022/09/12 06:43:02;;;;;;;44.05;15.13;;;;;;;;;;5010264;28;20168;-63
2022/09/12 06:45:28;;;;;;;19.33;8.45;;;;;;;;;;5008871;28;20048;-59
2022/09/12 06:47:55;;;;;;;22.75;9.20;;;;;;;;;;5001989;28;20080;-58
2022/09/12 06:50:21;;;;;;;15.88;7.60;;;;;;;;;;5024912;28;20050;-58
2022/09/12 06:52:50;;;;;;;20.13;7.35;;;;;;;;;;5001383;28;20057;-61
2022/09/12 06:55:16;;;;;;;30.95;12.55;;;;;;;;;;5000068;28;20075;-59
2022/09/12 06:57:43;;;;;;;18.23;7.45;;;;;;;;;;5003098;28;20046;-60
2022/09/12 07:00:10;;;;;;;38.40;13.82;;;;;;;;;;5008113;28;20064;-63
2022/09/12 07:02:37;;;;;;;24.25;9.15;;;;;;;;;;4994017;28;20055;-59
2022/09/12 07:05:03;;;;;;;18.08;7.40;;;;;;;;;;4969076;28;20134;-62
2022/09/12 07:07:33;;;;;;;16.98;7.70;;;;;;;;;;4969054;28;20050;-62
2022/09/12 07:10:01;;;;;;;37.30;13.82;;;;;;;;;;4988622;28;20055;-64
2022/09/12 07:12:27;;;;;;;19.50;8.68;;;;;;;;;;4984316;28;20062;-64
2022/09/12 07:14:54;;;;;;;26.65;11.32;;;;;;;;;;4999942;28;20061;-67
2022/09/12 07:17:20;;;;;;;38.80;13.63;;;;;;;;;;5005331;28;20115;-64
2022/09/12 07:19:47;;;;;;;29.95;12.80;;;;;;;;;;5007152;28;20249;-65
2022/09/12 07:22:14;;;;;;;27.77;12.07;;;;;;;;;;5008291;28;20145;-63
2022/09/12 07:24:41;;;;;;;34.88;15.05;;;;;;;;;;5002038;28;20057;-64
2022/09/12 07:27:08;;;;;;;38.85;12.82;;;;;;;;;;5008707;28;20053;-60
2022/09/12 07:29:35;;;;;;;23.27;9.80;;;;;;;;;;5002283;28;20146;-59
2022/09/12 07:32:03;;;;;;;19.05;8.77;;;;;;;;;;5008090;28;20061;-67
2022/09/12 07:34:29;;;;;;;22.13;9.05;;;;;;;;;;4990291;28;20062;-63
2022/09/12 07:36:56;;;;;;;25.58;10.23;;;;;;;;;;4988957;28;20082;-64
2022/09/12 07:39:23;;;;;;;19.73;8.65;;;;;;;;;;4993620;28;20080;-65
2022/09/12 07:41:50;;;;;;;31.10;12.00;;;;;;;;;;5007351;28;20056;-63
2022/09/12 07:44:18;;;;;;;27.80;10.18;;;;;;;;;;4982887;28;20066;-67
2022/09/12 07:46:44;;;;;;;24.23;10.18;;;;;;;;;;5004719;28;20074;-64
2022/09/12 07:49:12;;;;;;;38.40;14.73;;;;;;;;;;5004184;28;20073;-63
2022/09/12 07:51:38;;;;;;;37.30;14.70;;;;;;;;;;5008243;28;20152;-60
2022/09/12 07:54:07;;;;;;;27.23;12.60;;;;;;;;;;4999951;28;20053;-63
2022/09/12 07:56:34;;;;;;;22.67;9.73;;;;;;;;;;4988037;28;20054;-65
2022/09/12 07:59:01;;;;;;;23.70;9.57;;;;;;;;;;4984144;28;20054;-62
2022/09/12 08:01:29;;;;;;;24.42;10.32;;;;;;;;;;5007411;28;20058;-65
2022/09/12 08:03:56;;;;;;;35.47;15.37;;;;;;;;;;5007509;28;20115;-64
2022/09/12 08:06:23;;;;;;;41.90;17.17;;;;;;;;;;5000582;28;20308;-60
2022/09/12 08:08:49;;;;;;;41.90;16.88;;;;;;;;;;5007197;28;20220;-67
2022/09/12 08:11:17;;;;;;;51.08;15.68;;;;;;;;;;5000723;28;20125;-66
2022/09/12 08:13:44;;;;;;;42.20;14.77;;;;;;;;;;5007491;28;20064;-68
2022/09/12 08:16:12;;;;;;;25.75;10.27;;;;;;;;;;4989342;28;20062;-62
2022/09/12 08:18:40;;;;;;;47.05;12.55;;;;;;;;;;4988973;28;20081;-66
2022/09/12 08:21:07;;;;;;;27.58;11.55;;;;;;;;;;5009324;28;20084;-61
2022/09/12 08:23:34;;;;;;;30.95;13.85;;;;;;;;;;5007439;28;20049;-59
2022/09/12 08:26:03;;;;;;;31.92;11.73;;;;;;;;;;5000798;28;20054;-67
2022/09/12 08:28:30;;;;;;;30.70;12.43;;;;;;;;;;5005424;28;20107;-64
2022/09/12 08:31:00;;;;;;;25.33;10.70;;;;;;;;;;4995274;28;20035;-62
2022/09/12 08:33:31;;;;;;;24.15;11.73;;;;;;;;;;4987708;28;20085;-60
2022/09/12 08:36:04;;;;;;;31.48;13.50;;;;;;;;;;4982832;28;20066;-64
2022/09/12 08:38:30;;;;;;;44.33;14.43;;;;;;;;;;4987081;28;20082;-63
2022/09/12 08:41:00;;;;;;;27.88;10.15;;;;;;;;;;4983547;28;20046;-65
2022/09/12 08:43:31;;;;;;;22.58;9.57;;;;;;;;;;5006943;28;20081;-66
2022/09/12 08:46:00;;;;;;;24.52;10.82;;;;;;;;;;5012689;28;20061;-66
2022/09/12 08:48:27;;;;;;;19.90;9.43;;;;;;;;;;5007127;28;20081;-67
2022/09/12 08:50:54;;;;;;;26.50;11.73;;;;;;;;;;5005352;28;20127;-63
2022/09/12 08:53:23;;;;;;;31.52;12.82;;;;;;;;;;4981753;28;20068;-67
2022/09/12 08:55:53;;;;;;;30.15;13.40;;;;;;;;;;4986745;28;20228;-65
2022/09/12 08:58:21;;;;;;;29.15;12.98;;;;;;;;;;4999054;28;20056;-67
2022/09/12 09:00:52;;;;;;;25.08;10.85;;;;;;;;;;5006019;28;20073;-65
2022/09/12 09:03:43;;;;;;;27.17;11.77;;;;;;;;;;4986075;28;20113;-62
2022/09/12 09:06:13;;;;;;;26.92;12.25;;;;;;;;;;4972246;28;20054;-61
2022/09/12 09:08:47;;;;;;;27.52;12.52;;;;;;;;;;4982722;28;20057;-67
2022/09/12 09:11:23;;;;;;;29.88;12.88;;;;;;;;;;5003134;28;20047;-65
2022/09/12 09:16:41;;;;;;;27.60;11.77;;;;;;;;;;4986842;28;20050;-66
2022/09/12 09:19:11;;;;;;;27.92;12.88;;;;;;;;;;4981750;28;20148;-64
2022/09/12 09:21:41;;;;;;;20.60;10.57;;;;;;;;;;5002976;28;20062;-59
2022/09/12 09:24:13;;;;;;;22.52;11.25;;;;;;;;;;4996113;28;20064;-61
2022/09/12 09:26:43;;;;;;;19.85;9.60;;;;;;;;;;5007103;28;20050;-60
2022/09/12 09:29:13;;;;;;;26.10;10.50;;;;;;;;;;4988962;28;20134;-65
2022/09/12 09:31:42;;;;;;;26.13;11.52;;;;;;;;;;5006592;28;20065;-62
2022/09/12 09:34:08;;;;;;;;;;;;;;;;;;5000638;28;20065;-61
2022/09/12 09:36:42;;;;;;;24.20;11.35;;;;;;;;;;5022650;28;19933;-64
2022/09/12 09:39:12;;;;;;;24.40;12.40;;;;;;;;;;4990014;28;20065;-67
2022/09/12 09:41:45;;;;;;;20.42;9.98;;;;;;;;;;4986803;28;20161;-65
2022/09/12 09:44:12;;;;;;;19.77;9.27;;;;;;;;;;4982355;28;20050;-63
2022/09/12 09:46:39;;;;;;;29.15;14.27;;;;;;;;;;5003203;28;20073;-66
2022/09/12 09:49:06;;;;;;;21.83;10.73;;;;;;;;;;5004048;28;20050;-67
2022/09/12 09:51:34;;;;;;;26.63;12.50;;;;;;;;;;5006374;28;20072;-65
2022/09/12 09:54:02;;;;;;;25.13;12.27;;;;;;;;;;4996093;28;20051;-65
2022/09/12 09:56:32;;;;;;;26.55;13.15;;;;;;;;;;4978429;28;20054;-63
2022/09/12 09:59:10;;;;;;;25.15;12.02;;;;;;;;;;4962167;28;20109;-64
2022/09/12 10:01:37;;;;;;;;;;;;;;;;;;4967560;28;20069;-59
2022/09/12 10:04:04;;;;;;;23.75;10.82;;;;;;;;;;4977763;28;19977;-62
2022/09/12 10:06:33;;;;;;;27.38;13.45;;;;;;;;;;4966942;28;20063;-62
2022/09/12 10:09:19;;;;;;;22.90;11.07;;;;;;;;;;4963824;28;20058;-64
2022/09/12 10:11:48;;;;;;;24.75;11.45;;;;;;;;;;5000843;28;20073;-64
2022/09/12 10:14:35;;;;;;;20.52;10.10;;;;;;;;;;5001130;28;20054;-66
2022/09/12 10:17:02;;;;;;;23.30;10.05;;;;;;;;;;5002457;28;20415;-64
2022/09/12 10:19:36;;;;;;;21.08;10.63;;;;;;;;;;4982546;28;20054;-62
2022/09/12 10:22:03;;;;;;;22.70;11.88;;;;;;;;;;5001456;28;20054;-64
2022/09/12 10:24:32;;;;;;;16.70;8.38;;;;;;;;;;4984868;28;20050;-64
2022/09/12 10:27:06;;;;;;;19.60;10.55;;;;;;;;;;4999395;28;20056;-65
2022/09/12 10:29:39;;;;;;;20.25;9.75;;;;;;;;;;5009401;28;20042;-64
2022/09/12 10:32:07;;;;;;;22.27;10.07;;;;;;;;;;4985731;28;20052;-63
2022/09/12 10:34:35;;;;;;;18.80;9.52;;;;;;;;;;4989480;28;20085;-63
2022/09/12 10:37:04;;;;;;;20.55;9.98;;;;;;;;;;4985120;28;20082;-65
2022/09/12 10:39:32;;;;;;;17.33;9.63;;;;;;;;;;4989550;28;20137;-67
2022/09/12 10:41:58;;;;;;;18.85;9.43;;;;;;;;;;4977129;28;20144;-67
2022/09/12 10:44:26;;;;;;;15.68;7.93;;;;;;;;;;5025508;28;20087;-60
2022/09/12 10:46:54;;;;;;;14.55;8.32;;;;;;;;;;5011144;28;20050;-65
2022/09/12 10:49:23;;;;;;;16.15;6.72;;;;;;;;;;4989601;28;20050;-63
2022/09/12 10:51:49;;;;;;;12.05;5.47;;;;;;;;;;4992699;28;20068;-66
2022/09/12 10:54:18;;;;;;;15.40;6.05;;;;;;;;;;5000496;28;20055;-65
2022/09/12 10:56:52;;;;;;;10.40;5.10;;;;;;;;;;4991452;28;20065;-63
2022/09/12 10:59:25;;;;;;;9.85;5.07;;;;;;;;;;5008109;28;20056;-64
2022/09/12 11:02:00;;;;;;;10.65;4.97;;;;;;;;;;5003626;28;20080;-66
2022/09/12 11:04:29;;;;;;;10.32;4.88;;;;;;;;;;4995694;28;20042;-66
2022/09/12 11:07:06;;;;;;;10.20;4.70;;;;;;;;;;4988462;28;20049;-65
2022/09/12 11:09:34;;;;;;;16.52;5.63;;;;;;;;;;5008962;28;20053;-62
2022/09/12 11:12:08;;;;;;;10.70;5.63;;;;;;;;;;4998706;28;20085;-61
2022/09/12 11:14:40;;;;;;;10.80;5.25;;;;;;;;;;4989637;28;20108;-62
2022/09/12 11:17:14;;;;;;;13.30;5.30;;;;;;;;;;4983734;28;20141;-65
2022/09/12 11:19:55;;;;;;;9.93;5.15;;;;;;;;;;4988496;28;20213;-64
2022/09/12 11:22:29;;;;;;;10.23;4.63;;;;;;;;;;4983936;28;20157;-66
2022/09/12 11:25:12;;;;;;;12.20;4.38;;;;;;;;;;4987599;28;20081;-60
2022/09/12 11:27:48;;;;;;;7.57;3.75;;;;;;;;;;4987774;28;20059;-65
2022/09/12 11:30:16;;;;;;;13.27;4.97;;;;;;;;;;5008510;28;20053;-61
2022/09/12 11:32:52;;;;;;;8.20;4.63;;;;;;;;;;4999645;28;20125;-62
2022/09/12 11:35:23;;;;;;;7.10;4.10;;;;;;;;;;4994696;28;20058;-61
2022/09/12 11:38:02;;;;;;;8.43;4.57;;;;;;;;;;5002524;28;20049;-63
2022/09/12 11:40:32;;;;;;;13.02;4.82;;;;;;;;;;5007878;28;20057;-60
2022/09/12 11:43:01;;;;;;;10.05;4.15;;;;;;;;;;4994575;28;20064;-59
2022/09/12 11:45:30;;;;;;;12.65;4.20;;;;;;;;;;5024304;28;20053;-63
2022/09/12 11:48:02;;;;;;;8.25;3.40;;;;;;;;;;5018899;28;20136;-64
2022/09/12 11:50:30;;;;;;;7.43;3.58;;;;;;;;;;5007943;28;20119;-66
2022/09/12 11:53:00;;;;;;;7.75;3.83;;;;;;;;;;5007450;28;20098;-64
2022/09/12 11:55:29;;;;;;;6.68;3.40;;;;;;;;;;5003833;28;20081;-60
2022/09/12 11:57:55;;;;;;;;;;;;;;;;;;5008912;28;20045;-62
2022/09/12 12:00:23;;;;;;;6.63;3.10;;;;;;;;;;4985034;28;19953;-61
2022/09/12 12:02:54;;;;;;;7.03;3.90;;;;;;;;;;4988563;28;20121;-59
2022/09/12 12:05:25;;;;;;;7.22;3.63;;;;;;;;;;4998733;28;20049;-59
2022/09/12 12:07:53;;;;;;;8.23;3.60;;;;;;;;;;4990258;28;20056;-63
2022/09/12 12:10:25;;;;;;;8.83;3.33;;;;;;;;;;4997578;28;20054;-64
2022/09/12 12:12:52;;;;;;;9.93;3.85;;;;;;;;;;5006751;28;20080;-62
2022/09/12 12:15:20;;;;;;;12.90;3.95;;;;;;;;;;4990770;28;20061;-62
2022/09/12 12:17:59;;;;;;;8.15;3.25;;;;;;;;;;4987844;28;20054;-64
2022/09/12 12:20:28;;;;;;;7.85;3.60;;;;;;;;;;4981995;28;20061;-60
2022/09/12 12:22:55;;;;;;;10.23;3.20;;;;;;;;;;4986938;28;20128;-60
2022/09/12 12:25:37;;;;;;;6.30;3.50;;;;;;;;;;4990720;28;20037;-59
2022/09/12 12:28:05;;;;;;;6.93;2.97;;;;;;;;;;5007109;28;20053;-63
2022/09/12 12:31:00;;;;;;;4.57;2.63;;;;;;;;;;5001545;28;20084;-63
2022/09/12 12:33:56;;;;;;;5.75;2.55;;;;;;;;;;5007363;28;20116;-60
2022/09/12 12:36:45;;;;;;;5.22;2.72;;;;;;;;;;4930849;29;20062;-61
2022/09/12 12:39:48;;;;;;;5.70;2.72;;;;;;;;;;4978513;28;20050;-63
2022/09/12 12:42:33;;;;;;;8.52;3.20;;;;;;;;;;5001100;28;20045;-61
2022/09/12 12:45:02;;;;;;;5.93;2.83;;;;;;;;;;5005598;28;20115;-61
2022/09/12 12:47:32;;;;;;;6.35;2.80;;;;;;;;;;5003976;28;20077;-60
2022/09/12 12:50:01;;;;;;;5.80;2.60;;;;;;;;;;5005767;28;20412;-65
2022/09/12 12:52:30;;;;;;;4.28;2.33;;;;;;;;;;4991892;28;20062;-64
2022/09/12 12:54:56;;;;;;;;;;;;;;;;;;5006897;28;20057;-61
2022/09/12 12:57:41;;;;;;;6.43;3.00;;;;;;;;;;5002164;28;19926;-62
2022/09/12 13:00:25;;;;;;;4.55;2.38;;;;;;;;;;4993177;28;20050;-64
2022/09/12 13:02:55;;;;;;;8.27;3.28;;;;;;;;;;4999246;28;20050;-64
2022/09/12 13:05:23;;;;;;;6.47;3.45;;;;;;;;;;5006301;28;20092;-66
2022/09/12 13:07:54;;;;;;;9.20;3.20;;;;;;;;;;5000401;28;20121;-64
2022/09/12 13:10:22;;;;;;;4.30;2.15;;;;;;;;;;5006180;28;20049;-65
2022/09/12 13:12:50;;;;;;;5.00;2.60;;;;;;;;;;4987282;28;20118;-61
2022/09/12 13:15:45;;;;;;;7.32;3.20;;;;;;;;;;4986865;28;20062;-65
2022/09/12 13:18:16;;;;;;;6.65;2.72;;;;;;;;;;4957687;28;20065;-62
2022/09/12 13:20:47;;;;;;;5.47;2.70;;;;;;;;;;4986543;28;20059;-65
2022/09/12 13:23:21;;;;;;;10.18;3.50;;;;;;;;;;4998016;28;20066;-62
2022/09/12 13:25:52;;;;;;;7.22;3.10;;;;;;;;;;4986162;28;20139;-61
2022/09/12 13:28:18;;;;;;;6.95;2.95;;;;;;;;;;4993677;28;20058;-62
2022/09/12 13:30:47;;;;;;;6.90;3.08;;;;;;;;;;5022411;28;20046;-61
2022/09/12 13:33:21;;;;;;;10.52;3.60;;;;;;;;;;5006416;28;20058;-61
2022/09/12 13:36:05;;;;;;;5.47;2.70;;;;;;;;;;5002938;28;20054;-59
2022/09/12 13:38:37;;;;;;;16.38;3.78;;;;;;;;;;4992246;28;20064;-67
2022/09/12 13:41:19;;;;;;;7.40;3.10;;;;;;;;;;5005778;28;20060;-62
2022/09/12 13:43:47;;;;;;;5.30;2.63;;;;;;;;;;4989142;28;20061;-63
2022/09/12 13:46:16;;;;;;;4.55;2.45;;;;;;;;;;4987116;28;20078;-64
2022/09/12 13:48:44;;;;;;;7.82;2.13;;;;;;;;;;4991496;28;20046;-64
2022/09/12 13:51:21;;;;;;;5.40;2.22;;;;;;;;;;5022641;28;20050;-60
2022/09/12 13:53:47;;;;;;;6.32;2.58;;;;;;;;;;4998948;28;20081;-62
2022/09/12 13:56:16;;;;;;;5.47;2.53;;;;;;;;;;5005864;28;20208;-66
2022/09/12 13:58:53;;;;;;;5.65;2.30;;;;;;;;;;5001278;28;20048;-62
2022/09/12 14:01:19;;;;;;;5.60;2.38;;;;;;;;;;5007482;28;20172;-60
2022/09/12 14:06:47;;;;;;;4.05;2.20;;;;;;;;;;4990295;28;20220;-66
2022/09/12 14:09:15;;;;;;;10.13;2.50;;;;;;;;;;4985545;28;20061;-65
2022/09/12 14:11:41;;;;;;;5.38;2.33;;;;;;;;;;4987023;28;20054;-61
2022/09/12 14:14:19;;;;;;;4.53;1.80;;;;;;;;;;5004733;28;20157;-64
2022/09/12 14:16:48;;;;;;;4.43;2.00;;;;;;;;;;5009863;28;20056;-64
2022/09/12 14:19:17;;;;;;;6.22;2.38;;;;;;;;;;5000305;28;20309;-64
2022/09/12 14:21:43;;;;;;;7.00;2.63;;;;;;;;;;4989805;28;20129;-62
2022/09/12 14:24:13;;;;;;;5.35;2.10;;;;;;;;;;4985519;28;20145;-66
2022/09/12 14:26:43;;;;;;;3.22;1.92;;;;;;;;;;4989513;28;20166;-65
2022/09/12 14:29:12;;;;;;;4.00;1.90;;;;;;;;;;4989684;28;20103;-62
2022/09/12 14:31:40;;;;;;;4.53;2.13;;;;;;;;;;5006851;28;20105;-63
2022/09/12 14:34:10;;;;;;;2.63;1.83;;;;;;;;;;5006843;28;20058;-62
2022/09/12 14:36:46;;;;;;;4.10;2.00;;;;;;;;;;5006148;28;20042;-61
2022/09/12 14:39:18;;;;;;;4.28;2.15;;;;;;;;;;5010194;28;20061;-64
2022/09/12 14:41:45;;;;;;;7.10;2.40;;;;;;;;;;5003988;28;20058;-62
2022/09/12 14:44:18;;;;;;;4.63;2.10;;;;;;;;;;5010498;28;20042;-58
2022/09/12 14:46:45;;;;;;;5.38;1.98;;;;;;;;;;5005749;28;20065;-61
2022/09/12 14:49:16;;;;;;;4.88;2.10;;;;;;;;;;5028055;28;20054;-59
2022/09/12 14:51:47;;;;;;;3.13;1.80;;;;;;;;;;5020900;28;20050;-65
2022/09/12 14:54:32;;;;;;;4.60;2.20;;;;;;;;;;5000605;28;20061;-63
2022/09/12 14:57:01;;;;;;;3.40;1.90;;;;;;;;;;4984176;28;20197;-65